Kankakee, Illinois
Current Conditions -  °F | °C
As of 10:15 PM on Thursday 27 Nov 2014 (Local Time) from KJOT Reporting Station
Clear Clear  
Wind Chill: 15°   Ceiling: Unl
Heat Index: 15°   Visibility: 10mi
Dew Point: 10°   Wind: 0mph
Humidity: 77%   Direction: NA
Pressure: 30.42"   Gusts: NA
Location:  41.12°N, 87.86°W
Report Text: KJOT 280415Z AUTO 00000KT 10SM CLR M09/M12 A3042 RMK AO2 T10921125
Loading
Personal Weather Stations






























Interactive Weather Map New forecast layout! Learn more

10-Day Weather Forecast

Advertisements
Track Severe Weather on mobile